Time,TemperatureF,DewpointF,PressureIn,WindDirection,WindDirectionDegrees,WindSpeedMPH,WindSpeedGustMPH,Humidity,HourlyPrecipIn,Conditions,Clouds,dailyrainin,SoftwareType,DateUTC
2013-04-04 00:00:00,51.9,28.4,30.16,WSW,247,1.0,1.0,40,0.00,,---,0.00,VWS V14.01,2013-04-04 04:00:00,
2013-04-04 00:05:00,51.8,30.6,30.16,WSW,247,0.0,0.0,44,0.00,,---,0.00,VWS V14.01,2013-04-04 04:05:00,
2013-04-04 00:10:00,51.7,28.8,30.16,WSW,247,0.0,0.0,41,0.00,,---,0.00,VWS V14.01,2013-04-04 04:10:00,
2013-04-04 00:15:00,51.7,29.4,30.16,WSW,247,0.0,0.0,42,0.00,,---,0.00,VWS V14.01,2013-04-04 04:15:00,
2013-04-04 00:20:00,51.8,27.0,30.16,WSW,247,0.0,0.0,38,0.00,,---,0.00,VWS V14.01,2013-04-04 04:20:00,
2013-04-04 00:25:00,51.8,27.0,30.16,WSW,247,0.0,0.0,38,0.00,,---,0.00,VWS V14.01,2013-04-04 04:25:00,
2013-04-04 00:30:00,51.9,29.0,30.16,WSW,247,0.0,0.0,41,0.00,,---,0.00,VWS V14.01,2013-04-04 04:30:00,
2013-04-04 00:35:00,51.8,30.0,30.16,WSW,247,0.0,0.0,43,0.00,,---,0.00,VWS V14.01,2013-04-04 04:35:00,
2013-04-04 00:40:00,51.7,33.2,30.16,WSW,247,0.0,0.0,49,0.00,,---,0.00,VWS V14.01,2013-04-04 04:40:00,
2013-04-04 00:45:00,51.5,34.0,30.16,WSW,247,0.0,0.0,51,0.00,,---,0.00,VWS V14.01,2013-04-04 04:45:00,
2013-04-04 00:50:00,51.2,34.2,30.16,WSW,247,0.0,1.0,52,0.00,,---,0.00,VWS V14.01,2013-04-04 04:50:00,
2013-04-04 00:55:00,50.8,33.8,30.16,WSW,247,0.0,0.0,52,0.00,,---,0.00,VWS V14.01,2013-04-04 04:55:00,
2013-04-04 01:00:00,50.4,35.3,30.16,WSW,247,0.0,2.0,56,0.00,,---,0.00,VWS V14.01,2013-04-04 05:00:00,
2013-04-04 01:05:00,50.1,35.5,30.16,WSW,247,0.0,0.0,57,0.00,,---,0.00,VWS V14.01,2013-04-04 05:05:00,
2013-04-04 01:10:00,49.8,37.3,30.16,WSW,247,0.0,0.0,62,0.00,,---,0.00,VWS V14.01,2013-04-04 05:10:00,
2013-04-04 01:15:00,49.3,36.0,30.16,WSW,247,0.0,0.0,60,0.00,,---,0.00,VWS V14.01,2013-04-04 05:15:00,
2013-04-04 01:20:00,48.9,36.5,30.16,WSW,247,0.0,2.0,62,0.00,,---,0.00,VWS V14.01,2013-04-04 05:20:00,
2013-04-04 01:25:00,48.4,38.3,30.16,WSW,247,1.0,1.0,68,0.00,,---,0.00,VWS V14.01,2013-04-04 05:25:00,
2013-04-04 01:30:00,48.1,38.0,30.17,WSW,247,0.0,1.0,68,0.00,,---,0.00,VWS V14.01,2013-04-04 05:30:00,
2013-04-04 01:35:00,47.9,38.6,30.17,WSW,247,0.0,0.0,70,0.00,,---,0.00,VWS V14.01,2013-04-04 05:35:00,
2013-04-04 01:40:00,47.7,37.7,30.17,WSW,247,0.0,0.0,68,0.00,,---,0.00,VWS V14.01,2013-04-04 05:40:00,
2013-04-04 01:45:00,47.5,37.5,30.17,WSW,247,0.0,0.0,68,0.00,,---,0.00,VWS V14.01,2013-04-04 05:45:00,
2013-04-04 01:50:00,47.4,37.8,30.17,WSW,247,0.0,0.0,69,0.00,,---,0.00,VWS V14.01,2013-04-04 05:50:00,
2013-04-04 01:55:00,47.3,38.0,30.17,WSW,247,0.0,0.0,70,0.00,,---,0.00,VWS V14.01,2013-04-04 05:55:00,
2013-04-04 02:00:00,47.2,37.6,30.17,WSW,247,0.0,0.0,69,0.00,,---,0.00,VWS V14.01,2013-04-04 06:00:00,
2013-04-04 02:05:00,47.1,38.9,30.17,WSW,247,0.0,1.0,73,0.01,,---,0.01,VWS V14.01,2013-04-04 06:05:00,
2013-04-04 02:10:00,47.0,40.5,30.17,WSW,247,0.0,1.0,78,0.01,,---,0.01,VWS V14.01,2013-04-04 06:10:00,
2013-04-04 02:15:00,46.8,40.6,30.17,WSW,247,0.0,0.0,79,0.01,,---,0.01,VWS V14.01,2013-04-04 06:15:00,
2013-04-04 02:20:00,46.5,40.3,30.16,WSW,247,0.0,0.0,79,0.01,,---,0.01,VWS V14.01,2013-04-04 06:20:00,
2013-04-04 02:25:00,46.4,41.2,30.16,WSW,247,0.0,0.0,82,0.01,,---,0.01,VWS V14.01,2013-04-04 06:25:00,
2013-04-04 02:30:00,46.3,41.7,30.16,WSW,247,1.0,2.0,84,0.01,,---,0.01,VWS V14.01,2013-04-04 06:30:00,
2013-04-04 02:35:00,46.1,42.2,30.16,WSW,247,0.0,1.0,86,0.01,,---,0.01,VWS V14.01,2013-04-04 06:35:00,
2013-04-04 02:40:00,46.0,41.4,30.16,WSW,247,0.0,1.0,84,0.01,,---,0.01,VWS V14.01,2013-04-04 06:40:00,
2013-04-04 02:45:00,46.0,42.0,30.16,WSW,247,0.0,1.0,86,0.02,,---,0.02,VWS V14.01,2013-04-04 06:45:00,
2013-04-04 02:50:00,46.0,42.0,30.15,WSW,247,0.0,1.0,86,0.02,,---,0.02,VWS V14.01,2013-04-04 06:50:00,
2013-04-04 02:55:00,45.9,42.5,30.15,WSW,247,0.0,1.0,88,0.02,,---,0.02,VWS V14.01,2013-04-04 06:55:00,
2013-04-04 03:00:00,45.8,42.8,30.15,WSW,247,0.0,1.0,89,0.02,,---,0.02,VWS V14.01,2013-04-04 07:00:00,
2013-04-04 03:05:00,45.7,42.9,30.14,WSW,247,0.0,0.0,90,0.03,,---,0.03,VWS V14.01,2013-04-04 07:05:00,
2013-04-04 03:10:00,45.6,42.8,30.15,WSW,247,0.0,1.0,90,0.03,,---,0.03,VWS V14.01,2013-04-04 07:10:00,
2013-04-04 03:15:00,45.4,42.6,30.14,WSW,247,0.0,0.0,90,0.02,,---,0.03,VWS V14.01,2013-04-04 07:15:00,
2013-04-04 03:20:00,45.3,42.5,30.14,WSW,247,0.0,0.0,90,0.03,,---,0.04,VWS V14.01,2013-04-04 07:20:00,
2013-04-04 03:25:00,45.2,42.7,30.14,WSW,247,0.0,0.0,91,0.03,,---,0.04,VWS V14.01,2013-04-04 07:25:00,
2013-04-04 03:30:00,45.1,42.6,30.14,WSW,247,0.0,0.0,91,0.04,,---,0.05,VWS V14.01,2013-04-04 07:30:00,
2013-04-04 03:35:00,45.1,42.9,30.14,WSW,247,0.0,0.0,92,0.04,,---,0.05,VWS V14.01,2013-04-04 07:35:00,
2013-04-04 03:40:00,45.1,42.9,30.14,WSW,247,0.0,0.0,92,0.04,,---,0.05,VWS V14.01,2013-04-04 07:40:00,
2013-04-04 03:45:00,45.1,42.9,30.13,WSW,247,0.0,0.0,92,0.04,,---,0.05,VWS V14.01,2013-04-04 07:45:00,
2013-04-04 03:50:00,45.1,42.9,30.13,WSW,247,0.0,0.0,92,0.04,,---,0.05,VWS V14.01,2013-04-04 07:50:00,
2013-04-04 03:55:00,45.1,42.9,30.13,WSW,247,0.0,0.0,92,0.03,,---,0.05,VWS V14.01,2013-04-04 07:55:00,
2013-04-04 04:00:00,45.1,42.9,30.13,WSW,247,0.0,0.0,92,0.03,,---,0.05,VWS V14.01,2013-04-04 08:00:00,
2013-04-04 04:05:00,45.1,42.9,30.12,WSW,247,0.0,0.0,92,0.03,,---,0.05,VWS V14.01,2013-04-04 08:05:00,
2013-04-04 04:10:00,45.0,42.8,30.13,WSW,247,0.0,0.0,92,0.03,,---,0.05,VWS V14.01,2013-04-04 08:10:00,
2013-04-04 04:15:00,45.0,42.8,30.12,WSW,247,0.0,0.0,92,0.02,,---,0.05,VWS V14.01,2013-04-04 08:15:00,
2013-04-04 04:20:00,44.9,42.7,30.12,WSW,247,0.0,0.0,92,0.02,,---,0.05,VWS V14.01,2013-04-04 08:20:00,
2013-04-04 04:25:00,44.9,42.7,30.12,WSW,247,0.0,0.0,92,0.01,,---,0.05,VWS V14.01,2013-04-04 08:25:00,
2013-04-04 04:30:00,44.9,43.0,30.12,WSW,247,0.0,0.0,93,0.01,,---,0.05,VWS V14.01,2013-04-04 08:30:00,
2013-04-04 04:35:00,44.8,42.9,30.12,WSW,247,0.0,0.0,93,0.00,,---,0.05,VWS V14.01,2013-04-04 08:35:00,
2013-04-04 04:40:00,44.7,42.5,30.12,WSW,247,0.0,0.0,92,0.00,,---,0.05,VWS V14.01,2013-04-04 08:40:00,
2013-04-04 04:45:00,44.6,42.4,30.12,WSW,247,0.0,0.0,92,0.01,,---,0.06,VWS V14.01,2013-04-04 08:45:00,
2013-04-04 04:50:00,44.5,42.3,30.12,WSW,247,0.0,0.0,92,0.01,,---,0.06,VWS V14.01,2013-04-04 08:50:00,
2013-04-04 04:55:00,44.3,42.1,30.12,WSW,247,0.0,0.0,92,0.02,,---,0.07,VWS V14.01,2013-04-04 08:55:00,
2013-04-04 05:00:00,44.2,42.0,30.11,WSW,247,0.0,0.0,92,0.02,,---,0.07,VWS V14.01,2013-04-04 09:00:00,
2013-04-04 05:05:00,44.1,41.9,30.11,WSW,247,0.0,0.0,92,0.03,,---,0.08,VWS V14.01,2013-04-04 09:05:00,
2013-04-04 05:10:00,44.1,41.9,30.11,WSW,247,0.0,0.0,92,0.03,,---,0.08,VWS V14.01,2013-04-04 09:10:00,
2013-04-04 05:15:00,44.0,41.8,30.11,WSW,247,0.0,1.0,92,0.03,,---,0.08,VWS V14.01,2013-04-04 09:15:00,
2013-04-04 05:20:00,44.0,41.8,30.10,WSW,247,0.0,1.0,92,0.04,,---,0.09,VWS V14.01,2013-04-04 09:20:00,
2013-04-04 05:25:00,43.9,41.7,30.10,WSW,247,1.0,1.0,92,0.05,,---,0.10,VWS V14.01,2013-04-04 09:25:00,
2013-04-04 05:30:00,43.9,42.0,30.10,WSW,247,0.0,1.0,93,0.05,,---,0.10,VWS V14.01,2013-04-04 09:30:00,
2013-04-04 05:35:00,43.9,42.0,30.09,WSW,247,0.0,0.0,93,0.05,,---,0.10,VWS V14.01,2013-04-04 09:35:00,
2013-04-04 05:40:00,43.7,41.8,30.09,WSW,247,0.0,0.0,93,0.05,,---,0.10,VWS V14.01,2013-04-04 09:40:00,
2013-04-04 05:45:00,43.6,41.4,30.09,WSW,247,0.0,0.0,92,0.06,,---,0.11,VWS V14.01,2013-04-04 09:45:00,
2013-04-04 05:50:00,43.4,41.2,30.09,WSW,247,0.0,1.0,92,0.06,,---,0.11,VWS V14.01,2013-04-04 09:50:00,
2013-04-04 05:55:00,43.2,41.0,30.09,WSW,247,0.0,2.0,92,0.05,,---,0.11,VWS V14.01,2013-04-04 09:55:00,
2013-04-04 06:00:00,43.0,40.8,30.09,WSW,247,0.0,2.0,92,0.05,,---,0.11,VWS V14.01,2013-04-04 10:00:00,
2013-04-04 06:05:00,42.8,40.6,30.09,WSW,247,0.0,0.0,92,0.04,,---,0.11,VWS V14.01,2013-04-04 10:05:00,
2013-04-04 06:10:00,42.7,40.5,30.09,WSW,247,0.0,0.0,92,0.04,,---,0.11,VWS V14.01,2013-04-04 10:10:00,
2013-04-04 06:15:00,42.5,40.3,30.09,WSW,247,0.0,1.0,92,0.03,,---,0.11,VWS V14.01,2013-04-04 10:15:00,
2013-04-04 06:20:00,42.4,40.2,30.09,WSW,247,0.0,1.0,92,0.03,,---,0.11,VWS V14.01,2013-04-04 10:20:00,
2013-04-04 06:25:00,42.4,40.2,30.08,WSW,247,0.0,0.0,92,0.02,,---,0.11,VWS V14.01,2013-04-04 10:25:00,
2013-04-04 06:30:00,42.4,40.2,30.08,WSW,247,0.0,0.0,92,0.02,,---,0.11,VWS V14.01,2013-04-04 10:30:00,
2013-04-04 06:35:00,42.4,40.5,30.09,WSW,247,1.0,1.0,93,0.02,,---,0.12,VWS V14.01,2013-04-04 10:35:00,
2013-04-04 06:40:00,42.4,40.5,30.09,WSW,247,0.0,1.0,93,0.02,,---,0.12,VWS V14.01,2013-04-04 10:40:00,
2013-04-04 06:45:00,42.4,40.5,30.08,WSW,247,0.0,1.0,93,0.03,,---,0.13,VWS V14.01,2013-04-04 10:45:00,
2013-04-04 06:50:00,42.4,40.5,30.08,WSW,247,0.0,1.0,93,0.06,,---,0.16,VWS V14.01,2013-04-04 10:50:00,
2013-04-04 06:55:00,42.4,40.5,30.08,WSW,247,0.0,0.0,93,0.07,,---,0.18,VWS V14.01,2013-04-04 10:55:00,
2013-04-04 07:00:00,42.3,40.4,30.09,WSW,247,1.0,2.0,93,0.09,,---,0.20,VWS V14.01,2013-04-04 11:00:00,
2013-04-04 07:05:00,42.2,40.3,30.09,WSW,247,1.0,1.0,93,0.10,,---,0.21,VWS V14.01,2013-04-04 11:05:00,
2013-04-04 07:10:00,42.2,40.6,30.08,WSW,247,1.0,1.0,94,0.11,,---,0.22,VWS V14.01,2013-04-04 11:10:00,
2013-04-04 07:15:00,42.1,40.2,30.09,WSW,247,0.0,2.0,93,0.12,,---,0.23,VWS V14.01,2013-04-04 11:15:00,
2013-04-04 07:20:00,42.0,40.1,30.10,WSW,247,0.0,2.0,93,0.14,,---,0.25,VWS V14.01,2013-04-04 11:20:00,
2013-04-04 07:25:00,41.9,40.0,30.10,WSW,247,0.0,0.0,93,0.15,,---,0.26,VWS V14.01,2013-04-04 11:25:00,
2013-04-04 07:30:00,41.9,40.0,30.09,WSW,247,0.0,1.0,93,0.16,,---,0.27,VWS V14.01,2013-04-04 11:30:00,
2013-04-04 07:35:00,41.9,40.3,30.10,WSW,247,0.0,0.0,94,0.18,,---,0.29,VWS V14.01,2013-04-04 11:35:00,
2013-04-04 07:40:00,41.9,40.3,30.09,WSW,247,0.0,0.0,94,0.21,,---,0.32,VWS V14.01,2013-04-04 11:40:00,
2013-04-04 07:45:00,41.9,40.3,30.10,WSW,247,0.0,1.0,94,0.22,,---,0.34,VWS V14.01,2013-04-04 11:45:00,
2013-04-04 07:50:00,41.8,40.2,30.10,WSW,247,0.0,1.0,94,0.25,,---,0.37,VWS V14.01,2013-04-04 11:50:00,
2013-04-04 07:55:00,41.8,40.2,30.09,East,87,1.0,2.0,94,0.23,,---,0.39,VWS V14.01,2013-04-04 11:55:00,
2013-04-04 08:00:00,41.7,40.1,30.09,ENE,71,0.0,2.0,94,0.25,,---,0.41,VWS V14.01,2013-04-04 12:00:00,
2013-04-04 08:05:00,41.6,40.0,30.11,SSW,198,2.0,2.0,94,0.25,,---,0.45,VWS V14.01,2013-04-04 12:05:00,
2013-04-04 08:10:00,41.5,39.9,30.11,SSW,199,0.0,2.0,94,0.27,,---,0.47,VWS V14.01,2013-04-04 12:10:00,
2013-04-04 08:15:00,41.5,39.9,30.09,ENE,77,1.0,2.0,94,0.27,,---,0.50,VWS V14.01,2013-04-04 12:15:00,
2013-04-04 08:20:00,41.5,39.9,30.09,ENE,77,0.0,4.0,94,0.29,,---,0.52,VWS V14.01,2013-04-04 12:20:00,
2013-04-04 08:25:00,41.3,39.7,30.10,NNW,347,2.0,2.0,94,0.31,,---,0.56,VWS V14.01,2013-04-04 12:25:00,
2013-04-04 08:30:00,41.2,39.6,30.10,NNW,347,0.0,2.0,94,0.34,,---,0.59,VWS V14.01,2013-04-04 12:30:00,
2013-04-04 08:35:00,41.1,39.5,30.10,SE,140,2.0,2.0,94,0.35,,---,0.63,VWS V14.01,2013-04-04 12:35:00,
2013-04-04 08:40:00,41.1,39.5,30.11,NNW,331,2.0,3.0,94,0.36,,---,0.64,VWS V14.01,2013-04-04 12:40:00,
2013-04-04 08:45:00,41.0,39.4,30.12,WNW,301,0.0,3.0,94,0.34,,---,0.66,VWS V14.01,2013-04-04 12:45:00,
2013-04-04 08:50:00,41.0,39.4,30.11,North,360,0.0,3.0,94,0.35,,---,0.67,VWS V14.01,2013-04-04 12:50:00,
2013-04-04 08:55:00,41.0,39.7,30.10,NE,55,0.0,3.0,95,0.33,,---,0.70,VWS V14.01,2013-04-04 12:55:00,
2013-04-04 09:00:00,41.0,39.7,30.11,South,179,0.0,3.0,95,0.38,,---,0.75,VWS V14.01,2013-04-04 13:00:00,
2013-04-04 09:05:00,40.9,39.6,30.11,South,179,0.0,1.0,95,0.37,,---,0.79,VWS V14.01,2013-04-04 13:05:00,
2013-04-04 09:10:00,40.9,39.6,30.10,SE,144,0.0,2.0,95,0.40,,---,0.82,VWS V14.01,2013-04-04 13:10:00,
2013-04-04 09:15:00,40.9,39.6,30.11,SE,142,0.0,1.0,95,0.38,,---,0.85,VWS V14.01,2013-04-04 13:15:00,
2013-04-04 09:20:00,41.0,39.7,30.12,SSE,161,0.0,1.0,95,0.40,,---,0.87,VWS V14.01,2013-04-04 13:20:00,
2013-04-04 09:25:00,41.0,39.7,30.11,SSE,161,0.0,1.0,95,0.36,,---,0.89,VWS V14.01,2013-04-04 13:25:00,
2013-04-04 09:30:00,41.1,39.8,30.11,SSE,161,0.0,1.0,95,0.37,,---,0.90,VWS V14.01,2013-04-04 13:30:00,
2013-04-04 09:35:00,41.1,39.8,30.11,SSE,161,0.0,1.0,95,0.31,,---,0.91,VWS V14.01,2013-04-04 13:35:00,
2013-04-04 09:40:00,41.2,39.9,30.11,SSE,154,1.0,2.0,95,0.31,,---,0.91,VWS V14.01,2013-04-04 13:40:00,
2013-04-04 09:45:00,41.2,39.9,30.10,SSW,192,1.0,1.0,95,0.28,,---,0.92,VWS V14.01,2013-04-04 13:45:00,
2013-04-04 09:50:00,41.3,40.0,30.10,SE,146,0.0,2.0,95,0.29,,---,0.93,VWS V14.01,2013-04-04 13:50:00,
2013-04-04 09:55:00,41.3,40.0,30.10,ENE,61,3.0,5.0,95,0.26,,---,0.93,VWS V14.01,2013-04-04 13:55:00,
2013-04-04 10:00:00,41.3,40.0,30.10,ENE,72,1.0,5.0,95,0.26,,---,0.93,VWS V14.01,2013-04-04 14:00:00,
2013-04-04 10:05:00,41.3,40.0,30.10,NNE,18,0.0,2.0,95,0.18,,---,0.93,VWS V14.01,2013-04-04 14:05:00,
2013-04-04 10:10:00,41.4,40.1,30.10,WSW,245,0.0,3.0,95,0.18,,---,0.93,VWS V14.01,2013-04-04 14:10:00,
2013-04-04 10:16:00,41.4,40.1,30.10,ESE,105,0.0,2.0,95,0.11,,---,0.93,VWS V14.01,2013-04-04 14:16:00,
2013-04-04 10:21:00,41.5,40.2,30.09,West,269,0.0,2.0,95,0.12,,---,0.94,VWS V14.01,2013-04-04 14:21:00,
2013-04-04 10:26:00,41.5,40.2,30.09,East,86,1.0,2.0,95,0.07,,---,0.94,VWS V14.01,2013-04-04 14:26:00,
2013-04-04 10:31:00,41.6,40.3,30.09,ENE,69,1.0,2.0,95,0.07,,---,0.94,VWS V14.01,2013-04-04 14:31:00,
2013-04-04 10:36:00,41.7,40.4,30.09,SSE,164,0.0,2.0,95,0.05,,---,0.95,VWS V14.01,2013-04-04 14:36:00,
2013-04-04 10:41:00,41.8,40.8,30.09,WSW,257,0.0,2.0,96,0.05,,---,0.95,VWS V14.01,2013-04-04 14:41:00,
2013-04-04 10:46:00,42.0,40.9,30.10,WSW,256,1.0,2.0,96,0.06,,---,0.97,VWS V14.01,2013-04-04 14:46:00,
2013-04-04 10:51:00,42.0,40.9,30.10,WSW,256,0.0,2.0,96,0.07,,---,0.98,VWS V14.01,2013-04-04 14:51:00,
2013-04-04 10:56:00,42.2,41.1,30.10,WSW,256,0.0,2.0,96,0.05,,---,0.98,VWS V14.01,2013-04-04 14:56:00,
2013-04-04 11:01:00,42.3,41.2,30.10,WSW,256,0.0,2.0,96,0.06,,---,0.99,VWS V14.01,2013-04-04 15:01:00,
2013-04-04 11:06:00,42.4,41.3,30.10,WSW,256,0.0,1.0,96,0.06,,---,0.99,VWS V14.01,2013-04-04 15:06:00,
2013-04-04 11:11:00,42.4,41.3,30.11,West,265,0.0,1.0,96,0.07,,---,1.00,VWS V14.01,2013-04-04 15:11:00,
2013-04-04 11:16:00,42.4,41.3,30.10,West,265,0.0,0.0,96,0.08,,---,1.01,VWS V14.01,2013-04-04 15:16:00,
2013-04-04 11:21:00,42.5,41.4,30.11,West,265,0.0,1.0,96,0.09,,---,1.02,VWS V14.01,2013-04-04 15:21:00,
2013-04-04 11:26:00,42.5,41.4,30.11,West,265,0.0,1.0,96,0.09,,---,1.03,VWS V14.01,2013-04-04 15:26:00,
2013-04-04 11:31:00,42.6,41.5,30.11,West,265,0.0,1.0,96,0.10,,---,1.04,VWS V14.01,2013-04-04 15:31:00,
2013-04-04 11:36:00,42.6,41.5,30.11,East,81,0.0,3.0,96,0.11,,---,1.05,VWS V14.01,2013-04-04 15:36:00,
2013-04-04 11:41:00,42.6,41.5,30.11,West,280,0.0,3.0,96,0.13,,---,1.07,VWS V14.01,2013-04-04 15:41:00,
2013-04-04 11:46:00,42.6,41.3,30.11,West,280,0.0,1.0,95,0.13,,---,1.08,VWS V14.01,2013-04-04 15:46:00,
2013-04-04 11:51:00,42.7,41.6,30.11,West,280,0.0,1.0,96,0.14,,---,1.09,VWS V14.01,2013-04-04 15:51:00,
2013-04-04 11:56:00,42.7,41.6,30.11,West,280,0.0,1.0,96,0.11,,---,1.09,VWS V14.01,2013-04-04 15:56:00,
2013-04-04 12:01:00,42.8,41.7,30.11,West,281,1.0,1.0,96,0.12,,---,1.10,VWS V14.01,2013-04-04 16:01:00,
2013-04-04 12:06:00,42.9,41.8,30.11,West,281,0.0,1.0,96,0.11,,---,1.10,VWS V14.01,2013-04-04 16:06:00,
2013-04-04 12:11:00,43.0,41.9,30.12,West,281,0.0,2.0,96,0.12,,---,1.11,VWS V14.01,2013-04-04 16:11:00,
2013-04-04 12:16:00,43.1,42.0,30.12,West,281,1.0,1.0,96,0.12,,---,1.12,VWS V14.01,2013-04-04 16:16:00,
2013-04-04 12:21:00,43.1,42.0,30.11,ENE,76,1.0,2.0,96,0.13,,---,1.13,VWS V14.01,2013-04-04 16:21:00,
2013-04-04 12:26:00,43.2,42.1,30.11,ENE,76,0.0,1.0,96,0.11,,---,1.14,VWS V14.01,2013-04-04 16:26:00,
2013-04-04 12:31:00,43.4,42.3,30.11,ENE,76,0.0,1.0,96,0.12,,---,1.15,VWS V14.01,2013-04-04 16:31:00,
2013-04-04 12:36:00,43.4,42.1,30.11,ENE,76,0.0,2.0,95,0.11,,---,1.15,VWS V14.01,2013-04-04 16:36:00,
2013-04-04 12:41:00,43.4,42.1,30.11,East,84,1.0,3.0,95,0.11,,---,1.15,VWS V14.01,2013-04-04 16:41:00,
2013-04-04 12:46:00,43.4,42.1,30.11,ENE,78,0.0,3.0,95,0.09,,---,1.16,VWS V14.01,2013-04-04 16:46:00,
2013-04-04 12:51:00,43.3,42.0,30.11,ENE,70,2.0,3.0,95,0.07,,---,1.16,VWS V14.01,2013-04-04 16:51:00,
2013-04-04 12:57:00,43.3,42.0,30.10,ENE,75,0.0,3.0,95,0.08,,---,1.17,VWS V14.01,2013-04-04 16:57:00,
2013-04-04 13:02:00,43.4,42.1,30.10,ENE,78,3.0,3.0,95,0.08,,---,1.18,VWS V14.01,2013-04-04 17:02:00,
2013-04-04 13:07:00,43.4,42.1,30.09,NE,49,4.0,5.0,95,0.09,,---,1.19,VWS V14.01,2013-04-04 17:07:00,
2013-04-04 13:12:00,43.4,42.1,30.09,East,83,2.0,2.0,95,0.09,,---,1.20,VWS V14.01,2013-04-04 17:12:00,
2013-04-04 13:17:00,43.6,42.3,30.09,East,83,1.0,3.0,95,0.11,,---,1.22,VWS V14.01,2013-04-04 17:17:00,
2013-04-04 13:22:00,43.6,42.3,30.09,East,83,0.0,1.0,95,0.09,,---,1.22,VWS V14.01,2013-04-04 17:22:00,
2013-04-04 13:27:00,43.7,42.4,30.09,East,83,0.0,1.0,95,0.10,,---,1.23,VWS V14.01,2013-04-04 17:27:00,
2013-04-04 13:32:00,43.8,42.5,30.09,East,83,1.0,2.0,95,0.08,,---,1.23,VWS V14.01,2013-04-04 17:32:00,
2013-04-04 13:37:00,43.8,42.2,30.09,East,79,1.0,4.0,94,0.08,,---,1.23,VWS V14.01,2013-04-04 17:37:00,
2013-04-04 13:42:00,43.9,42.3,30.08,East,93,2.0,2.0,94,0.08,,---,1.23,VWS V14.01,2013-04-04 17:42:00,
2013-04-04 13:47:00,44.0,42.1,30.08,East,93,0.0,3.0,93,0.08,,---,1.23,VWS V14.01,2013-04-04 17:47:00,
2013-04-04 13:52:00,44.2,42.3,30.08,East,82,1.0,5.0,93,0.07,,---,1.23,VWS V14.01,2013-04-04 17:52:00,
2013-04-04 13:57:00,44.3,42.4,30.08,ESE,115,2.0,5.0,93,0.07,,---,1.23,VWS V14.01,2013-04-04 17:57:00,
2013-04-04 14:02:00,44.5,42.6,30.08,ENE,59,2.0,2.0,93,0.05,,---,1.23,VWS V14.01,2013-04-04 18:02:00,
2013-04-04 14:07:00,44.6,42.1,30.07,East,85,2.0,5.0,91,0.05,,---,1.23,VWS V14.01,2013-04-04 18:07:00,
2013-04-04 14:12:00,44.9,42.7,30.07,ENE,69,0.0,2.0,92,0.03,,---,1.23,VWS V14.01,2013-04-04 18:12:00,
2013-04-04 14:17:00,45.0,42.5,30.07,ENE,71,1.0,4.0,91,0.03,,---,1.23,VWS V14.01,2013-04-04 18:17:00,
2013-04-04 14:22:00,45.0,42.5,30.07,ENE,74,3.0,3.0,91,0.01,,---,1.23,VWS V14.01,2013-04-04 18:22:00,
2013-04-04 14:27:00,45.0,42.5,30.07,ENE,61,3.0,3.0,91,0.01,,---,1.23,VWS V14.01,2013-04-04 18:27:00,
2013-04-04 14:32:00,45.0,42.8,30.06,NE,44,3.0,3.0,92,0.00,,---,1.23,VWS V14.01,2013-04-04 18:32:00,
2013-04-04 14:37:00,45.0,42.5,30.06,ENE,73,0.0,5.0,91,0.00,,---,1.23,VWS V14.01,2013-04-04 18:37:00,
2013-04-04 14:42:00,44.9,42.4,30.06,East,92,0.0,3.0,91,0.00,,---,1.23,VWS V14.01,2013-04-04 18:42:00,
2013-04-04 14:47:00,44.9,42.4,30.06,ENE,69,0.0,3.0,91,0.00,,---,1.23,VWS V14.01,2013-04-04 18:47:00,
2013-04-04 14:52:00,44.9,42.4,30.06,ENE,63,1.0,3.0,91,0.00,,---,1.23,VWS V14.01,2013-04-04 18:52:00,
2013-04-04 14:57:00,44.7,42.2,30.06,ENE,63,0.0,3.0,91,0.00,,---,1.23,VWS V14.01,2013-04-04 18:57:00,
2013-04-04 15:02:00,44.7,42.5,30.05,ENE,67,0.0,2.0,92,0.00,,---,1.23,VWS V14.01,2013-04-04 19:02:00,
2013-04-04 15:07:00,44.8,42.9,30.05,ENE,67,2.0,2.0,93,0.00,,---,1.23,VWS V14.01,2013-04-04 19:07:00,
2013-04-04 15:12:00,44.9,43.0,30.05,East,86,0.0,1.0,93,0.00,,---,1.23,VWS V14.01,2013-04-04 19:12:00,
2013-04-04 15:17:00,45.0,43.1,30.05,East,86,0.0,1.0,93,0.00,,---,1.23,VWS V14.01,2013-04-04 19:17:00,
2013-04-04 15:22:00,45.1,43.2,30.05,East,86,2.0,2.0,93,0.00,,---,1.23,VWS V14.01,2013-04-04 19:22:00,
2013-04-04 15:27:00,45.0,43.1,30.04,East,88,0.0,3.0,93,0.01,,---,1.24,VWS V14.01,2013-04-04 19:27:00,
2013-04-04 15:32:00,45.0,43.1,30.04,ESE,103,0.0,2.0,93,0.01,,---,1.24,VWS V14.01,2013-04-04 19:32:00,
2013-04-04 15:37:00,45.1,43.2,30.04,ESE,102,0.0,2.0,93,0.01,,---,1.24,VWS V14.01,2013-04-04 19:37:00,
2013-04-04 15:42:00,45.0,43.1,30.03,East,83,1.0,2.0,93,0.01,,---,1.24,VWS V14.01,2013-04-04 19:42:00,
2013-04-04 15:47:00,45.0,43.4,30.03,South,188,0.0,2.0,94,0.01,,---,1.24,VWS V14.01,2013-04-04 19:47:00,
2013-04-04 15:52:00,45.0,43.4,30.03,North,355,1.0,2.0,94,0.01,,---,1.24,VWS V14.01,2013-04-04 19:52:00,
2013-04-04 15:57:00,45.0,43.4,30.03,ENE,69,0.0,3.0,94,0.02,,---,1.25,VWS V14.01,2013-04-04 19:57:00,
2013-04-04 16:03:00,45.0,43.4,30.03,ENE,69,1.0,1.0,94,0.02,,---,1.25,VWS V14.01,2013-04-04 20:03:00,
2013-04-04 16:08:00,45.0,43.4,30.03,ENE,65,0.0,1.0,94,0.02,,---,1.25,VWS V14.01,2013-04-04 20:08:00,
2013-04-04 16:13:00,44.9,43.3,30.03,East,96,2.0,5.0,94,0.02,,---,1.25,VWS V14.01,2013-04-04 20:13:00,
2013-04-04 16:18:00,44.8,43.2,30.02,ENE,67,0.0,5.0,94,0.02,,---,1.25,VWS V14.01,2013-04-04 20:18:00,
2013-04-04 16:23:00,44.8,43.2,30.02,ENE,73,0.0,2.0,94,0.03,,---,1.26,VWS V14.01,2013-04-04 20:23:00,
2013-04-04 16:28:00,44.8,43.2,30.02,East,87,3.0,3.0,94,0.04,,---,1.27,VWS V14.01,2013-04-04 20:28:00,
2013-04-04 16:33:00,44.6,43.0,30.02,East,92,1.0,2.0,94,0.03,,---,1.27,VWS V14.01,2013-04-04 20:33:00,
2013-04-04 16:38:00,44.7,43.4,30.02,North,10,1.0,3.0,95,0.03,,---,1.27,VWS V14.01,2013-04-04 20:38:00,
2013-04-04 16:43:00,44.8,43.5,30.02,NNE,15,1.0,1.0,95,0.03,,---,1.27,VWS V14.01,2013-04-04 20:43:00,
2013-04-04 16:48:00,44.8,43.5,30.02,NE,41,1.0,4.0,95,0.04,,---,1.28,VWS V14.01,2013-04-04 20:48:00,
2013-04-04 16:53:00,44.9,43.6,30.02,NE,41,0.0,2.0,95,0.04,,---,1.28,VWS V14.01,2013-04-04 20:53:00,
2013-04-04 16:58:00,44.9,43.6,30.02,East,83,2.0,3.0,95,0.05,,---,1.29,VWS V14.01,2013-04-04 20:58:00,
2013-04-04 17:03:00,44.9,43.6,30.02,East,88,1.0,1.0,95,0.04,,---,1.29,VWS V14.01,2013-04-04 21:03:00,
2013-04-04 17:08:00,44.9,43.6,30.02,ESE,123,1.0,1.0,95,0.05,,---,1.30,VWS V14.01,2013-04-04 21:08:00,
2013-04-04 17:13:00,45.0,43.7,30.02,ESE,123,0.0,1.0,95,0.05,,---,1.30,VWS V14.01,2013-04-04 21:13:00,
2013-04-04 17:18:00,45.0,43.7,30.01,ESE,123,2.0,2.0,95,0.05,,---,1.30,VWS V14.01,2013-04-04 21:18:00,
2013-04-04 17:23:00,45.0,43.7,30.01,ESE,123,0.0,2.0,95,0.05,,---,1.30,VWS V14.01,2013-04-04 21:23:00,
2013-04-04 17:28:00,45.1,43.8,30.01,ESE,123,0.0,2.0,95,0.05,,---,1.30,VWS V14.01,2013-04-04 21:28:00,
2013-04-04 17:33:00,45.2,43.9,30.01,East,94,0.0,0.0,95,0.03,,---,1.30,VWS V14.01,2013-04-04 21:33:00,
2013-04-04 17:38:00,45.2,43.9,30.01,East,94,0.0,1.0,95,0.03,,---,1.30,VWS V14.01,2013-04-04 21:38:00,
2013-04-04 17:43:00,45.2,43.9,30.02,East,94,0.0,2.0,95,0.03,,---,1.30,VWS V14.01,2013-04-04 21:43:00,
2013-04-04 17:48:00,45.2,43.9,30.01,ENE,67,0.0,3.0,95,0.03,,---,1.30,VWS V14.01,2013-04-04 21:48:00,
2013-04-04 17:53:00,45.1,43.5,30.01,ESE,113,2.0,2.0,94,0.02,,---,1.30,VWS V14.01,2013-04-04 21:53:00,
2013-04-04 17:58:00,45.1,43.5,30.01,ESE,112,0.0,2.0,94,0.02,,---,1.30,VWS V14.01,2013-04-04 21:58:00,
2013-04-04 18:03:00,45.1,43.5,30.01,ESE,112,0.0,2.0,94,0.01,,---,1.30,VWS V14.01,2013-04-04 22:03:00,
2013-04-04 18:08:00,45.1,43.5,30.01,ESE,112,0.0,2.0,94,0.01,,---,1.30,VWS V14.01,2013-04-04 22:08:00,
2013-04-04 18:13:00,45.1,43.5,30.00,ESE,112,0.0,1.0,94,0.00,,---,1.30,VWS V14.01,2013-04-04 22:13:00,
2013-04-04 18:18:00,45.2,43.9,30.01,ESE,112,0.0,1.0,95,0.00,,---,1.30,VWS V14.01,2013-04-04 22:18:00,
2013-04-04 18:23:00,45.2,43.9,30.01,SE,142,0.0,1.0,95,0.00,,---,1.30,VWS V14.01,2013-04-04 22:23:00,
2013-04-04 18:28:00,45.2,43.6,30.01,WSW,249,0.0,2.0,94,0.00,,---,1.30,VWS V14.01,2013-04-04 22:28:00,
2013-04-04 18:33:00,45.2,43.9,30.00,WSW,249,0.0,0.0,95,0.00,,---,1.30,VWS V14.01,2013-04-04 22:33:00,
2013-04-04 18:38:00,45.2,43.9,30.00,WSW,249,0.0,0.0,95,0.00,,---,1.30,VWS V14.01,2013-04-04 22:38:00,
2013-04-04 18:43:00,45.2,43.9,30.00,WSW,248,1.0,1.0,95,0.00,,---,1.30,VWS V14.01,2013-04-04 22:43:00,
2013-04-04 18:48:00,45.2,43.9,30.00,WSW,248,0.0,1.0,95,0.00,,---,1.30,VWS V14.01,2013-04-04 22:48:00,
2013-04-04 18:53:00,45.2,43.9,30.00,WSW,248,0.0,2.0,95,0.00,,---,1.30,VWS V14.01,2013-04-04 22:53:00,
2013-04-04 18:58:00,45.2,43.9,29.99,East,94,0.0,3.0,95,0.00,,---,1.30,VWS V14.01,2013-04-04 22:58:00,
2013-04-04 19:03:00,45.1,43.8,29.99,ENE,68,1.0,5.0,95,0.00,,---,1.30,VWS V14.01,2013-04-04 23:03:00,
2013-04-04 19:08:00,45.1,43.5,29.99,NE,55,0.0,5.0,94,0.00,,---,1.30,VWS V14.01,2013-04-04 23:08:00,
2013-04-04 19:13:00,45.1,43.5,29.99,East,86,0.0,1.0,94,0.00,,---,1.30,VWS V14.01,2013-04-04 23:13:00,
2013-04-04 19:18:00,45.1,43.5,29.99,East,86,0.0,1.0,94,0.00,,---,1.30,VWS V14.01,2013-04-04 23:18:00,
2013-04-04 19:23:00,45.1,43.5,29.99,East,88,0.0,1.0,94,0.00,,---,1.30,VWS V14.01,2013-04-04 23:23:00,
2013-04-04 19:28:00,45.1,43.5,29.99,East,88,0.0,1.0,94,0.00,,---,1.30,VWS V14.01,2013-04-04 23:28:00,
2013-04-04 19:33:00,45.1,43.5,30.00,East,88,0.0,0.0,94,0.00,,---,1.30,VWS V14.01,2013-04-04 23:33:00,
2013-04-04 19:38:00,45.1,43.5,30.00,East,88,0.0,0.0,94,0.00,,---,1.30,VWS V14.01,2013-04-04 23:38:00,
2013-04-04 19:43:00,45.1,43.8,29.99,East,88,0.0,0.0,95,0.00,,---,1.30,VWS V14.01,2013-04-04 23:43:00,
2013-04-04 19:47:00,45.1,43.8,29.99,East,88,0.0,0.0,95,0.00,,---,1.30,VWS V14.01,2013-04-04 23:47:00,
2013-04-04 19:52:00,45.1,43.8,29.99,East,88,0.0,0.0,95,0.00,,---,1.30,VWS V14.01,2013-04-04 23:52:00,
2013-04-04 19:57:00,45.1,43.8,29.99,East,88,0.0,1.0,95,0.00,,---,1.30,VWS V14.01,2013-04-04 23:57:00,
2013-04-04 20:03:00,45.0,43.7,30.00,East,88,0.0,0.0,95,0.00,,---,1.30,VWS V14.01,2013-04-05 00:03:00,
2013-04-04 20:08:00,45.0,43.7,30.00,East,88,0.0,0.0,95,0.00,,---,1.30,VWS V14.01,2013-04-05 00:08:00,
2013-04-04 20:13:00,45.0,43.7,30.00,East,88,0.0,0.0,95,0.00,,---,1.30,VWS V14.01,2013-04-05 00:13:00,
2013-04-04 20:18:00,45.0,43.7,29.99,East,88,0.0,0.0,95,0.00,,---,1.30,VWS V14.01,2013-04-05 00:18:00,
2013-04-04 20:23:00,45.0,43.7,29.99,East,88,0.0,0.0,95,0.00,,---,1.30,VWS V14.01,2013-04-05 00:23:00,
2013-04-04 20:28:00,45.0,43.7,29.99,East,88,0.0,0.0,95,0.00,,---,1.30,VWS V14.01,2013-04-05 00:28:00,
2013-04-04 20:33:00,45.0,43.7,29.99,East,88,0.0,1.0,95,0.00,,---,1.30,VWS V14.01,2013-04-05 00:33:00,
2013-04-04 20:38:00,44.9,43.6,29.99,East,88,0.0,1.0,95,0.00,,---,1.30,VWS V14.01,2013-04-05 00:38:00,
2013-04-04 20:43:00,45.0,43.7,30.00,East,88,0.0,0.0,95,0.00,,---,1.30,VWS V14.01,2013-04-05 00:43:00,
2013-04-04 20:48:00,44.9,43.6,29.99,East,88,0.0,1.0,95,0.00,,---,1.30,VWS V14.01,2013-04-05 00:48:00,
2013-04-04 20:53:00,45.0,43.7,29.99,East,88,0.0,0.0,95,0.00,,---,1.30,VWS V14.01,2013-04-05 00:53:00,
2013-04-04 20:58:00,45.0,43.7,29.99,East,88,0.0,0.0,95,0.00,,---,1.30,VWS V14.01,2013-04-05 00:58:00,
2013-04-04 21:03:00,45.0,43.7,29.99,East,88,0.0,0.0,95,0.00,,---,1.30,VWS V14.01,2013-04-05 01:03:00,
2013-04-04 21:08:00,45.0,43.7,29.99,East,88,0.0,0.0,95,0.00,,---,1.30,VWS V14.01,2013-04-05 01:08:00,
2013-04-04 21:13:00,45.0,43.9,29.99,East,88,0.0,0.0,96,0.00,,---,1.30,VWS V14.01,2013-04-05 01:13:00,
2013-04-04 21:18:00,45.0,43.9,29.99,East,88,0.0,0.0,96,0.00,,---,1.30,VWS V14.01,2013-04-05 01:18:00,
2013-04-04 21:23:00,45.0,43.9,29.99,East,88,0.0,2.0,96,0.00,,---,1.30,VWS V14.01,2013-04-05 01:23:00,
2013-04-04 21:28:00,45.0,43.9,29.99,East,88,0.0,2.0,96,0.00,,---,1.30,VWS V14.01,2013-04-05 01:28:00,
2013-04-04 21:33:00,44.9,43.8,29.99,East,88,1.0,1.0,96,0.00,,---,1.30,VWS V14.01,2013-04-05 01:33:00,
2013-04-04 21:38:00,44.9,43.8,29.99,East,92,1.0,2.0,96,0.00,,---,1.30,VWS V14.01,2013-04-05 01:38:00,
2013-04-04 21:43:00,44.9,43.6,29.99,ESE,113,0.0,1.0,95,0.00,,---,1.30,VWS V14.01,2013-04-05 01:43:00,
2013-04-04 21:48:00,44.8,43.5,30.00,ESE,113,0.0,1.0,95,0.00,,---,1.30,VWS V14.01,2013-04-05 01:48:00,
2013-04-04 21:53:00,44.7,43.4,30.00,SSW,212,0.0,1.0,95,0.00,,---,1.30,VWS V14.01,2013-04-05 01:53:00,
2013-04-04 21:58:00,44.7,43.4,30.00,ESE,120,0.0,2.0,95,0.00,,---,1.30,VWS V14.01,2013-04-05 01:58:00,
2013-04-04 22:03:00,44.6,43.3,30.00,SE,125,0.0,1.0,95,0.00,,---,1.30,VWS V14.01,2013-04-05 02:03:00,
2013-04-04 22:08:00,44.6,43.3,30.00,SE,124,0.0,2.0,95,0.00,,---,1.30,VWS V14.01,2013-04-05 02:08:00,
2013-04-04 22:13:00,44.6,43.3,30.00,SE,124,0.0,1.0,95,0.00,,---,1.30,VWS V14.01,2013-04-05 02:13:00,
2013-04-04 22:18:00,44.6,43.5,30.00,SE,124,0.0,1.0,96,0.00,,---,1.30,VWS V14.01,2013-04-05 02:18:00,
2013-04-04 22:23:00,44.6,43.3,30.01,SE,124,0.0,1.0,95,0.00,,---,1.30,VWS V14.01,2013-04-05 02:23:00,
2013-04-04 22:28:00,44.6,43.3,30.00,SE,124,0.0,1.0,95,0.00,,---,1.30,VWS V14.01,2013-04-05 02:28:00,
2013-04-04 22:33:00,44.5,43.2,30.00,SE,124,0.0,1.0,95,0.00,,---,1.30,VWS V14.01,2013-04-05 02:33:00,
2013-04-04 22:38:00,44.5,43.2,30.00,SE,124,0.0,1.0,95,0.00,,---,1.30,VWS V14.01,2013-04-05 02:38:00,
2013-04-04 22:43:00,44.4,43.1,30.00,SE,124,0.0,1.0,95,0.00,,---,1.30,VWS V14.01,2013-04-05 02:43:00,
2013-04-04 22:48:00,44.4,43.3,30.00,SE,124,0.0,1.0,96,0.00,,---,1.30,VWS V14.01,2013-04-05 02:48:00,
2013-04-04 22:53:00,44.3,43.0,30.00,ESE,123,0.0,2.0,95,0.00,,---,1.30,VWS V14.01,2013-04-05 02:53:00,
2013-04-04 22:58:00,44.2,42.9,30.00,ESE,121,0.0,2.0,95,0.00,,---,1.30,VWS V14.01,2013-04-05 02:58:00,
2013-04-04 23:03:00,44.2,42.9,30.00,ESE,121,1.0,1.0,95,0.00,,---,1.30,VWS V14.01,2013-04-05 03:03:00,
2013-04-04 23:08:00,44.1,42.8,30.00,South,187,1.0,2.0,95,0.00,,---,1.30,VWS V14.01,2013-04-05 03:08:00,
2013-04-04 23:13:00,44.0,42.7,30.00,South,187,0.0,1.0,95,0.00,,---,1.30,VWS V14.01,2013-04-05 03:13:00,
2013-04-04 23:18:00,44.0,42.7,30.00,ESE,107,0.0,3.0,95,0.00,,---,1.30,VWS V14.01,2013-04-05 03:18:00,
2013-04-04 23:23:00,44.0,42.7,30.00,SE,124,2.0,2.0,95,0.00,,---,1.30,VWS V14.01,2013-04-05 03:23:00,
2013-04-04 23:28:00,43.9,42.6,30.00,SSE,161,0.0,3.0,95,0.00,,---,1.30,VWS V14.01,2013-04-05 03:28:00,
2013-04-04 23:33:00,43.9,42.6,30.00,SW,228,0.0,2.0,95,0.00,,---,1.30,VWS V14.01,2013-04-05 03:33:00,
2013-04-04 23:38:00,43.9,42.6,30.00,SW,228,0.0,2.0,95,0.00,,---,1.30,VWS V14.01,2013-04-05 03:38:00,
2013-04-04 23:43:00,43.8,42.5,30.00,SW,228,0.0,1.0,95,0.00,,---,1.30,VWS V14.01,2013-04-05 03:43:00,
2013-04-04 23:48:00,43.8,42.5,30.00,SW,228,0.0,1.0,95,0.00,,---,1.30,VWS V14.01,2013-04-05 03:48:00,
2013-04-04 23:53:00,43.7,42.4,30.00,SW,228,0.0,1.0,95,0.00,,---,1.30,VWS V14.01,2013-04-05 03:53:00,
2013-04-04 23:58:00,43.7,42.4,30.00,SSE,159,0.0,2.0,95,0.00,,---,1.30,VWS V14.01,2013-04-05 03:58:00,